Time;durP1;ratioP1;P1;durP2;ratioP2;P2;SDS_P1;SDS_P2;PMS_P1;PMS_P2;Temp;Humidity;BMP_temperature;BMP_pressure;BME280_temperature;BME280_humidity;BME280_pressure;Samples;Min_cycle;Max_cycle;Signal;HPM_P1;HPM_P2
2021/01/28 00:01:09;;;;;;;10.70;7.60;;;;;;;;;;4270892;33;20235;-59
2021/01/28 00:03:34;;;;;;;9.90;6.83;;;;;;;;;;4272170;33;20275;-58
2021/01/28 00:06:00;;;;;;;35.37;18.40;;;;;;;;;;4273415;33;20211;-58
2021/01/28 00:08:26;;;;;;;63.43;30.87;;;;;;;;;;4274369;33;20247;-52
2021/01/28 00:10:52;;;;;;;44.57;25.20;;;;;;;;;;4269829;33;20359;-53
2021/01/28 00:13:18;;;;;;;36.97;21.13;;;;;;;;;;4272178;33;20844;-53
2021/01/28 00:15:44;;;;;;;50.00;25.97;;;;;;;;;;4270200;33;20318;-53
2021/01/28 00:18:11;;;;;;;33.97;19.93;;;;;;;;;;4270630;33;20251;-53
2021/01/28 00:20:46;;;;;;;37.37;21.70;;;;;;;;;;4271208;33;20259;-59
2021/01/28 00:23:12;;;;;;;32.83;18.13;;;;;;;;;;4267979;33;20243;-54
2021/01/28 00:25:38;;;;;;;33.40;18.97;;;;;;;;;;4278953;33;20307;-54
2021/01/28 00:28:07;;;;;;;32.37;18.90;;;;;;;;;;4270503;33;20411;-53
2021/01/28 00:30:38;;;;;;;33.27;22.10;;;;;;;;;;4268066;33;20279;-52
2021/01/28 00:33:05;;;;;;;27.63;18.10;;;;;;;;;;4269898;33;20351;-53
2021/01/28 00:35:34;;;;;;;25.13;15.83;;;;;;;;;;4270210;33;20239;-53
2021/01/28 00:38:01;;;;;;;14.90;10.87;;;;;;;;;;4270536;33;20697;-54
2021/01/28 00:40:28;;;;;;;17.23;12.03;;;;;;;;;;4269548;33;20234;-58
2021/01/28 00:42:54;;;;;;;22.43;12.80;;;;;;;;;;4269738;33;20254;-54
2021/01/28 00:45:23;;;;;;;19.87;13.43;;;;;;;;;;4269652;33;20237;-53
2021/01/28 00:47:49;;;;;;;22.97;15.43;;;;;;;;;;4266181;33;20292;-54
2021/01/28 00:50:20;;;;;;;19.37;13.33;;;;;;;;;;4274935;33;20378;-52
2021/01/28 00:52:45;;;;;;;22.00;15.03;;;;;;;;;;4269277;33;20217;-53
2021/01/28 00:55:13;;;;;;;21.93;15.33;;;;;;;;;;4270912;33;20242;-52
2021/01/28 00:57:39;;;;;;;21.90;11.57;;;;;;;;;;4269224;33;20276;-60
2021/01/28 01:00:35;;;;;;;15.70;10.37;;;;;;;;;;4271164;33;20363;-59
2021/01/28 01:03:01;;;;;;;15.40;8.80;;;;;;;;;;4262704;33;20259;-53
2021/01/28 01:05:32;;;;;;;23.60;15.07;;;;;;;;;;4263658;33;20380;-54
2021/01/28 01:07:59;;;;;;;22.33;13.80;;;;;;;;;;4259806;33;20621;-53
2021/01/28 01:10:52;;;;;;;21.33;13.20;;;;;;;;;;4260872;33;20320;-53
2021/01/28 01:13:24;;;;;;;25.73;16.87;;;;;;;;;;4273458;33;20655;-53
2021/01/28 01:15:50;;;;;;;31.13;16.53;;;;;;;;;;4265714;33;20244;-53
2021/01/28 01:18:19;;;;;;;25.63;13.80;;;;;;;;;;4256364;33;20262;-54
2021/01/28 01:20:46;;;;;;;23.43;15.03;;;;;;;;;;4269214;33;20208;-53
2021/01/28 01:23:12;;;;;;;24.50;14.53;;;;;;;;;;4268898;33;20278;-54
2021/01/28 01:25:38;;;;;;;27.47;14.97;;;;;;;;;;4265772;33;20623;-55
2021/01/28 01:28:04;;;;;;;26.70;13.93;;;;;;;;;;4270041;33;20220;-59
2021/01/28 01:30:30;;;;;;;30.57;15.37;;;;;;;;;;4269128;33;20511;-59
2021/01/28 01:32:55;;;;;;;29.60;19.70;;;;;;;;;;4270041;33;20252;-59
2021/01/28 01:35:22;;;;;;;32.77;18.63;;;;;;;;;;4265791;33;20201;-59
2021/01/28 01:37:50;;;;;;;25.07;14.77;;;;;;;;;;4270410;33;20381;-52
2021/01/28 01:40:40;;;;;;;31.40;20.43;;;;;;;;;;4268557;33;20235;-53
2021/01/28 01:43:08;;;;;;;53.43;27.57;;;;;;;;;;4267439;33;20241;-59
2021/01/28 01:45:42;;;;;;;25.97;16.13;;;;;;;;;;4269782;33;20399;-59
2021/01/28 01:48:10;;;;;;;34.47;20.17;;;;;;;;;;4272400;33;20240;-59
2021/01/28 01:50:46;;;;;;;42.93;25.33;;;;;;;;;;4269150;33;20263;-52
2021/01/28 01:53:21;;;;;;;36.30;22.70;;;;;;;;;;4269292;33;20729;-53
2021/01/28 01:55:51;;;;;;;29.43;17.67;;;;;;;;;;4268384;33;20238;-53
2021/01/28 01:58:48;;;;;;;24.17;16.20;;;;;;;;;;4271303;33;20271;-53
2021/01/28 02:01:15;;;;;;;24.63;17.90;;;;;;;;;;4268548;33;20342;-53
2021/01/28 02:03:42;;;;;;;23.73;14.33;;;;;;;;;;4268827;33;20248;-52
2021/01/28 02:06:33;;;;;;;17.57;11.70;;;;;;;;;;4264385;33;20314;-53
2021/01/28 02:09:00;;;;;;;16.70;11.00;;;;;;;;;;4258450;33;20287;-53
2021/01/28 02:11:26;;;;;;;16.37;10.50;;;;;;;;;;4268173;33;20402;-54
2021/01/28 02:13:55;;;;;;;17.67;11.27;;;;;;;;;;4265841;33;20280;-52
2021/01/28 02:16:24;;;;;;;19.53;13.20;;;;;;;;;;4267431;33;20262;-52
2021/01/28 02:18:50;;;;;;;17.63;11.70;;;;;;;;;;4267935;33;20224;-53
2021/01/28 02:21:24;;;;;;;20.13;11.37;;;;;;;;;;4267925;33;20292;-53
2021/01/28 02:23:59;;;;;;;20.27;12.30;;;;;;;;;;4269407;33;20731;-60
2021/01/28 02:26:25;;;;;;;17.30;10.50;;;;;;;;;;4275289;33;20714;-53
2021/01/28 02:28:50;;;;;;;18.87;10.83;;;;;;;;;;4268805;33;20287;-59
2021/01/28 02:31:17;;;;;;;19.13;12.60;;;;;;;;;;4267068;33;20631;-57
2021/01/28 02:33:45;;;;;;;18.60;10.67;;;;;;;;;;4263821;33;20654;-57
2021/01/28 02:36:12;;;;;;;15.93;10.53;;;;;;;;;;4267253;33;20686;-53
2021/01/28 02:38:38;;;;;;;13.60;9.03;;;;;;;;;;4255790;33;20293;-57
2021/01/28 02:41:05;;;;;;;13.70;9.17;;;;;;;;;;4253715;33;20358;-54
2021/01/28 02:43:31;;;;;;;15.00;10.50;;;;;;;;;;4265912;33;20231;-53
2021/01/28 02:46:12;;;;;;;11.77;7.73;;;;;;;;;;4266982;33;20212;-52
2021/01/28 02:48:38;;;;;;;15.77;10.43;;;;;;;;;;4268397;33;20643;-52
2021/01/28 02:51:06;;;;;;;18.33;9.87;;;;;;;;;;4268488;33;20258;-52
2021/01/28 02:53:40;;;;;;;15.13;9.23;;;;;;;;;;4266246;33;20825;-57
2021/01/28 02:56:06;;;;;;;10.43;8.30;;;;;;;;;;4268385;33;20311;-57
2021/01/28 02:58:31;;;;;;;11.40;8.57;;;;;;;;;;4268297;33;20552;-57
2021/01/28 03:00:57;;;;;;;12.07;8.17;;;;;;;;;;4270768;33;20350;-54
2021/01/28 03:03:23;;;;;;;11.57;7.77;;;;;;;;;;4266520;33;20296;-57
2021/01/28 03:05:49;;;;;;;11.47;8.53;;;;;;;;;;4271303;33;20527;-56
2021/01/28 03:08:15;;;;;;;12.47;9.60;;;;;;;;;;4270704;33;20225;-52
2021/01/28 03:10:42;;;;;;;23.90;11.80;;;;;;;;;;4274333;33;20271;-53
2021/01/28 03:13:09;;;;;;;28.70;16.30;;;;;;;;;;4272760;33;20250;-56
2021/01/28 03:15:35;;;;;;;30.33;16.93;;;;;;;;;;4273747;33;20240;-59
2021/01/28 03:18:00;;;;;;;23.60;14.93;;;;;;;;;;4270606;33;20362;-54
2021/01/28 03:20:26;;;;;;;21.67;15.40;;;;;;;;;;4272395;33;20250;-53
2021/01/28 03:22:52;;;;;;;20.17;14.27;;;;;;;;;;4279260;33;20274;-53
2021/01/28 03:25:19;;;;;;;20.93;12.57;;;;;;;;;;4264992;33;20242;-58
2021/01/28 03:27:46;;;;;;;22.00;12.43;;;;;;;;;;4277754;33;20973;-58
2021/01/28 03:30:23;;;;;;;23.80;14.83;;;;;;;;;;4276191;33;20353;-58
2021/01/28 03:32:48;;;;;;;25.83;17.17;;;;;;;;;;4274073;33;20220;-53
2021/01/28 03:35:15;;;;;;;21.77;13.17;;;;;;;;;;4277067;33;20774;-54
2021/01/28 03:37:41;;;;;;;21.63;13.63;;;;;;;;;;4270908;33;20233;-57
2021/01/28 03:40:07;;;;;;;21.17;12.80;;;;;;;;;;4278060;33;20258;-53
2021/01/28 03:42:33;;;;;;;32.33;16.93;;;;;;;;;;4263723;33;20490;-56
2021/01/28 03:44:58;;;;;;;27.77;17.77;;;;;;;;;;4278296;33;20325;-52
2021/01/28 03:47:24;;;;;;;20.93;14.80;;;;;;;;;;4272103;33;20656;-57
2021/01/28 03:49:50;;;;;;;27.40;15.77;;;;;;;;;;4276401;33;20669;-57
2021/01/28 03:52:16;;;;;;;29.10;17.40;;;;;;;;;;4273079;33;20233;-52
2021/01/28 03:54:41;;;;;;;31.17;18.03;;;;;;;;;;4272993;33;20325;-53
2021/01/28 03:57:07;;;;;;;40.50;21.20;;;;;;;;;;4272873;33;20299;-58
2021/01/28 03:59:33;;;;;;;37.00;20.20;;;;;;;;;;4267591;33;20317;-52
2021/01/28 04:01:58;;;;;;;48.83;27.77;;;;;;;;;;4260334;33;20255;-57
2021/01/28 04:04:24;;;;;;;40.27;24.03;;;;;;;;;;4273285;33;20271;-56
2021/01/28 04:06:50;;;;;;;29.77;18.50;;;;;;;;;;4260606;33;20236;-55
2021/01/28 04:09:15;;;;;;;27.40;16.80;;;;;;;;;;4272423;33;20225;-56
2021/01/28 04:11:41;;;;;;;21.20;14.13;;;;;;;;;;4272948;33;20607;-52
2021/01/28 04:14:06;;;;;;;24.03;15.53;;;;;;;;;;4268604;33;20615;-55
2021/01/28 04:16:32;;;;;;;29.03;16.20;;;;;;;;;;4266139;33;20341;-54
2021/01/28 04:18:57;;;;;;;27.17;17.87;;;;;;;;;;4270391;33;20313;-54
2021/01/28 04:21:23;;;;;;;14.17;11.10;;;;;;;;;;4271086;33;20298;-61
2021/01/28 04:23:48;;;;;;;9.50;7.33;;;;;;;;;;4258662;33;20547;-59
2021/01/28 04:26:14;;;;;;;18.27;10.83;;;;;;;;;;4271646;33;20221;-61
2021/01/28 04:28:40;;;;;;;22.27;12.83;;;;;;;;;;4260448;33;20333;-54
2021/01/28 04:31:06;;;;;;;23.20;14.80;;;;;;;;;;4272883;33;20327;-54
2021/01/28 04:33:32;;;;;;;24.40;15.97;;;;;;;;;;4271592;33;20611;-53
2021/01/28 04:35:59;;;;;;;26.87;17.53;;;;;;;;;;4271357;33;20438;-53
2021/01/28 04:38:25;;;;;;;37.80;19.33;;;;;;;;;;4274290;33;20204;-53
2021/01/28 04:41:05;;;;;;;33.47;18.20;;;;;;;;;;4271558;33;20256;-54
2021/01/28 04:43:32;;;;;;;35.33;19.33;;;;;;;;;;4269629;33;20699;-62
2021/01/28 04:46:02;;;;;;;32.53;19.13;;;;;;;;;;4271194;33;20724;-63
2021/01/28 04:48:30;;;;;;;28.47;19.20;;;;;;;;;;4271707;33;20590;-64
2021/01/28 04:50:57;;;;;;;30.83;17.97;;;;;;;;;;4270140;33;20239;-65
2021/01/28 04:53:47;;;;;;;45.07;23.27;;;;;;;;;;4281132;33;20363;-66
2021/01/28 04:56:17;;;;;;;31.90;18.53;;;;;;;;;;4277325;33;20331;-65
2021/01/28 04:58:43;;;;;;;30.17;17.23;;;;;;;;;;4258231;33;20291;-53
2021/01/28 05:01:08;;;;;;;38.77;20.37;;;;;;;;;;4271541;33;20255;-52
2021/01/28 05:03:42;;;;;;;29.43;18.37;;;;;;;;;;4285737;33;20304;-52
2021/01/28 05:06:09;;;;;;;25.13;15.43;;;;;;;;;;4268141;33;20292;-53
2021/01/28 05:08:34;;;;;;;17.90;11.03;;;;;;;;;;4270366;33;20224;-58
2021/01/28 05:11:00;;;;;;;18.90;13.00;;;;;;;;;;4269870;33;20595;-59
2021/01/28 05:13:30;;;;;;;46.93;28.60;;;;;;;;;;4268945;33;20387;-59
2021/01/28 05:15:59;;;;;;;37.47;18.80;;;;;;;;;;4266903;33;20255;-59
2021/01/28 05:18:29;;;;;;;38.23;21.13;;;;;;;;;;4269903;33;20266;-59
2021/01/28 05:21:19;;;;;;;29.37;18.30;;;;;;;;;;4268997;33;20213;-62
2021/01/28 05:23:45;;;;;;;24.17;16.30;;;;;;;;;;4270354;33;20256;-62
2021/01/28 05:26:34;;;;;;;54.40;30.53;;;;;;;;;;4269980;33;20314;-60
2021/01/28 05:29:20;;;;;;;43.40;26.10;;;;;;;;;;4271456;33;20769;-59
2021/01/28 05:31:47;;;;;;;32.67;20.37;;;;;;;;;;4272276;33;20274;-54
2021/01/28 05:34:23;;;;;;;52.17;26.77;;;;;;;;;;4280808;33;20324;-53
2021/01/28 05:36:58;;;;;;;52.93;30.90;;;;;;;;;;4266826;33;20631;-51
2021/01/28 05:39:40;;;;;;;55.10;26.33;;;;;;;;;;4271212;33;20310;-53
2021/01/28 05:42:08;;;;;;;72.73;36.10;;;;;;;;;;4270509;33;20213;-53
2021/01/28 05:44:38;;;;;;;94.90;55.00;;;;;;;;;;4269435;33;20501;-58
2021/01/28 05:47:11;;;;;;;103.07;54.07;;;;;;;;;;4270279;33;20326;-57
2021/01/28 05:49:40;;;;;;;79.00;41.67;;;;;;;;;;4269871;33;20348;-53
2021/01/28 05:52:29;;;;;;;93.10;47.83;;;;;;;;;;4265891;33;20300;-58
2021/01/28 05:55:12;;;;;;;61.93;35.47;;;;;;;;;;4271935;33;20712;-54
2021/01/28 05:58:05;;;;;;;59.07;31.87;;;;;;;;;;4281573;33;20307;-54
2021/01/28 06:00:56;;;;;;;35.97;20.63;;;;;;;;;;4268965;33;20268;-53
2021/01/28 06:03:40;;;;;;;43.07;27.50;;;;;;;;;;4280085;33;20762;-53
2021/01/28 06:06:24;;;;;;;82.20;39.30;;;;;;;;;;4271000;33;20245;-54
2021/01/28 06:09:31;;;;;;;128.93;58.63;;;;;;;;;;4256285;33;20290;-53
2021/01/28 06:12:15;;;;;;;98.30;45.20;;;;;;;;;;4268973;33;20291;-54
2021/01/28 06:14:59;;;;;;;119.97;60.50;;;;;;;;;;4272598;33;20251;-54
2021/01/28 06:17:45;;;;;;;75.43;41.80;;;;;;;;;;4283383;33;20663;-54
2021/01/28 06:20:59;;;;;;;83.63;46.03;;;;;;;;;;4266792;33;20312;-53
2021/01/28 06:23:31;;;;;;;102.57;54.43;;;;;;;;;;4264655;33;20229;-55
2021/01/28 06:26:18;;;;;;;80.17;48.73;;;;;;;;;;4269827;33;20593;-54
2021/01/28 06:29:11;;;;;;;86.97;47.53;;;;;;;;;;4266425;33;20331;-61
2021/01/28 06:31:47;;;;;;;94.90;51.67;;;;;;;;;;4267379;33;20272;-61
2021/01/28 06:34:21;;;;;;;128.70;68.20;;;;;;;;;;4268172;33;20317;-56
2021/01/28 06:37:09;;;;;;;121.43;68.50;;;;;;;;;;4268366;33;20686;-55
2021/01/28 06:39:41;;;;;;;117.50;65.53;;;;;;;;;;4267049;33;20367;-55
2021/01/28 06:42:35;;;;;;;112.53;60.20;;;;;;;;;;4269600;33;20690;-55
2021/01/28 06:45:14;;;;;;;73.67;44.10;;;;;;;;;;4267688;33;20209;-54
2021/01/28 06:47:52;;;;;;;90.03;50.40;;;;;;;;;;4267649;33;20615;-54
2021/01/28 06:50:24;;;;;;;89.40;48.57;;;;;;;;;;4270549;33;20231;-60
2021/01/28 06:53:07;;;;;;;92.60;44.47;;;;;;;;;;4266426;33;20244;-59
2021/01/28 06:55:38;;;;;;;61.27;37.50;;;;;;;;;;4268622;33;20808;-59
2021/01/28 06:58:30;;;;;;;83.47;41.80;;;;;;;;;;4268448;33;20212;-58
2021/01/28 07:01:03;;;;;;;68.20;39.63;;;;;;;;;;4266523;33;20236;-58
2021/01/28 07:04:01;;;;;;;90.63;47.53;;;;;;;;;;4264667;33;20278;-59
2021/01/28 07:06:43;;;;;;;73.57;41.03;;;;;;;;;;4258293;33;20402;-60
2021/01/28 07:09:33;;;;;;;40.80;24.40;;;;;;;;;;4278455;33;20576;-60
2021/01/28 07:12:03;;;;;;;40.13;23.67;;;;;;;;;;4266091;33;20233;-62
2021/01/28 07:14:29;;;;;;;46.83;28.53;;;;;;;;;;4269397;33;20252;-53
2021/01/28 07:17:19;;;;;;;29.30;18.40;;;;;;;;;;4279439;33;20709;-54
2021/01/28 07:19:55;;;;;;;54.17;31.00;;;;;;;;;;4267647;33;20621;-54
2021/01/28 07:22:41;;;;;;;53.03;30.87;;;;;;;;;;4262844;33;20318;-54
2021/01/28 07:25:30;;;;;;;46.03;23.23;;;;;;;;;;4267337;33;20246;-58
2021/01/28 07:28:25;;;;;;;52.83;26.93;;;;;;;;;;4262366;33;20240;-58
2021/01/28 07:31:05;;;;;;;60.73;29.40;;;;;;;;;;4262216;33;20360;-53
2021/01/28 07:33:31;;;;;;;59.00;29.53;;;;;;;;;;4268781;33;20374;-60
2021/01/28 07:35:57;;;;;;;32.33;21.37;;;;;;;;;;4266922;33;20654;-53
2021/01/28 07:38:32;;;;;;;37.07;21.67;;;;;;;;;;4266571;33;20302;-60
2021/01/28 07:41:04;;;;;;;34.83;20.50;;;;;;;;;;4267247;33;21030;-54
2021/01/28 07:43:33;;;;;;;35.30;22.73;;;;;;;;;;4265151;33;20593;-54
2021/01/28 07:46:34;;;;;;;36.70;23.33;;;;;;;;;;4265745;33;20251;-55
2021/01/28 07:49:11;;;;;;;48.77;29.40;;;;;;;;;;4264206;33;20254;-62
2021/01/28 07:51:40;;;;;;;60.33;30.30;;;;;;;;;;4272653;33;21748;-61
2021/01/28 07:54:29;;;;;;;70.97;34.80;;;;;;;;;;4260542;33;20232;-61
2021/01/28 07:57:06;;;;;;;46.47;29.37;;;;;;;;;;4254907;33;20244;-52
2021/01/28 07:59:52;;;;;;;82.80;48.23;;;;;;;;;;4268389;33;20300;-52
2021/01/28 08:02:26;;;;;;;93.10;50.40;;;;;;;;;;4264655;33;20464;-53
2021/01/28 08:05:05;;;;;;;92.27;51.33;;;;;;;;;;4266757;33;20998;-65
2021/01/28 08:07:46;;;;;;;86.73;47.97;;;;;;;;;;4263202;33;20358;-53
2021/01/28 08:10:26;;;;;;;66.90;39.23;;;;;;;;;;4270244;33;20245;-64
2021/01/28 08:13:17;;;;;;;72.67;43.30;;;;;;;;;;4269601;33;20359;-52
2021/01/28 08:15:46;;;;;;;69.87;38.90;;;;;;;;;;4270772;33;20304;-62
2021/01/28 08:18:19;;;;;;;75.27;42.17;;;;;;;;;;4258232;33;20288;-53
2021/01/28 08:20:46;;;;;;;65.27;38.47;;;;;;;;;;4281352;33;20275;-61
2021/01/28 08:23:18;;;;;;;52.33;29.47;;;;;;;;;;4271313;33;20224;-60
2021/01/28 08:25:54;;;;;;;107.40;60.30;;;;;;;;;;4270318;33;20220;-61
2021/01/28 08:28:20;;;;;;;48.17;30.27;;;;;;;;;;4267625;33;20216;-53
2021/01/28 08:30:45;;;;;;;48.30;32.67;;;;;;;;;;4270863;33;20600;-52
2021/01/28 08:33:22;;;;;;;81.57;44.30;;;;;;;;;;4270834;33;20655;-52
2021/01/28 08:35:52;;;;;;;70.17;41.73;;;;;;;;;;4267292;33;20283;-62
2021/01/28 08:38:33;;;;;;;58.23;32.90;;;;;;;;;;4270616;33;20234;-63
2021/01/28 08:41:20;;;;;;;57.47;36.57;;;;;;;;;;4270632;33;20296;-52
2021/01/28 08:43:56;;;;;;;48.77;32.23;;;;;;;;;;4270798;33;20358;-61
2021/01/28 08:46:23;;;;;;;58.77;31.20;;;;;;;;;;4270237;33;20702;-63
2021/01/28 08:48:48;;;;;;;32.87;21.67;;;;;;;;;;4270601;33;20339;-60
2021/01/28 08:51:22;;;;;;;35.50;25.87;;;;;;;;;;4270661;33;20288;-62
2021/01/28 08:53:58;;;;;;;35.23;23.13;;;;;;;;;;4281514;33;20259;-60
2021/01/28 08:56:36;;;;;;;37.23;24.63;;;;;;;;;;4266725;33;20239;-63
2021/01/28 08:59:06;;;;;;;39.57;22.40;;;;;;;;;;4260945;33;20232;-65
2021/01/28 09:01:43;;;;;;;49.43;27.43;;;;;;;;;;4270263;33;20638;-64
2021/01/28 09:04:09;;;;;;;27.27;16.73;;;;;;;;;;4270597;33;20235;-54
2021/01/28 09:06:39;;;;;;;22.23;13.37;;;;;;;;;;4267957;33;20568;-53
2021/01/28 09:09:16;;;;;;;21.47;13.90;;;;;;;;;;4270351;33;20220;-53
2021/01/28 09:11:41;;;;;;;22.70;14.83;;;;;;;;;;4269749;33;20421;-54
2021/01/28 09:14:30;;;;;;;13.43;9.60;;;;;;;;;;4270489;33;20359;-66
2021/01/28 09:17:04;;;;;;;15.17;9.10;;;;;;;;;;4269539;33;20291;-66
2021/01/28 09:19:33;;;;;;;12.57;7.83;;;;;;;;;;4269944;33;20254;-65
2021/01/28 09:22:25;;;;;;;111.80;36.53;;;;;;;;;;4270295;33;20694;-64
2021/01/28 09:24:51;;;;;;;40.17;16.77;;;;;;;;;;4270066;33;20217;-62
2021/01/28 09:27:25;;;;;;;141.07;48.10;;;;;;;;;;4269292;33;20254;-52
2021/01/28 09:29:53;;;;;;;20.93;12.73;;;;;;;;;;4270188;33;20224;-53
2021/01/28 09:32:18;;;;;;;109.47;42.20;;;;;;;;;;4268722;33;20318;-60
2021/01/28 09:34:45;;;;;;;18.60;10.97;;;;;;;;;;4270204;33;20317;-53
2021/01/28 09:37:18;;;;;;;28.40;17.43;;;;;;;;;;4269684;33;20561;-51
2021/01/28 09:39:46;;;;;;;28.90;17.43;;;;;;;;;;4270734;33;20244;-53
2021/01/28 09:42:12;;;;;;;24.90;14.57;;;;;;;;;;4280401;33;20262;-53
2021/01/28 09:44:47;;;;;;;13.37;8.67;;;;;;;;;;4270056;33;20295;-53
2021/01/28 09:47:17;;;;;;;52.07;16.73;;;;;;;;;;4269163;33;20390;-52
2021/01/28 09:49:45;;;;;;;27.33;14.70;;;;;;;;;;4269755;33;20390;-53
2021/01/28 09:52:32;;;;;;;18.00;8.33;;;;;;;;;;4269824;33;20728;-52
2021/01/28 09:54:59;;;;;;;16.33;10.23;;;;;;;;;;4269313;33;20315;-52
2021/01/28 09:57:26;;;;;;;12.67;8.57;;;;;;;;;;4268797;33;20319;-58
2021/01/28 09:59:53;;;;;;;19.33;12.03;;;;;;;;;;4269086;33;20208;-57
2021/01/28 10:02:35;;;;;;;18.77;12.63;;;;;;;;;;4269232;33;20215;-52
2021/01/28 10:05:00;;;;;;;21.40;12.43;;;;;;;;;;4268563;33;20602;-52
2021/01/28 10:07:26;;;;;;;11.77;9.00;;;;;;;;;;4268927;33;20252;-52
2021/01/28 10:09:51;;;;;;;11.10;8.53;;;;;;;;;;4269579;33;20220;-52
2021/01/28 10:12:20;;;;;;;13.40;8.43;;;;;;;;;;4269345;33;20216;-53
2021/01/28 10:14:45;;;;;;;9.93;7.83;;;;;;;;;;4269634;33;20220;-53
2021/01/28 10:17:13;;;;;;;16.73;8.10;;;;;;;;;;4269125;33;20315;-53
2021/01/28 10:19:42;;;;;;;11.43;7.77;;;;;;;;;;4269647;33;20659;-53
2021/01/28 10:22:10;;;;;;;9.70;7.27;;;;;;;;;;4266273;33;20368;-53
2021/01/28 10:24:36;;;;;;;10.83;6.07;;;;;;;;;;4268563;33;20439;-56
2021/01/28 10:27:01;;;;;;;14.40;5.70;;;;;;;;;;4255578;33;20262;-55
2021/01/28 10:29:27;;;;;;;9.13;6.43;;;;;;;;;;4267438;33;20745;-56
2021/01/28 10:31:52;;;;;;;11.67;8.23;;;;;;;;;;4266524;33;20442;-55
2021/01/28 10:34:18;;;;;;;11.30;7.13;;;;;;;;;;4267570;33;20333;-56
2021/01/28 10:36:43;;;;;;;14.33;8.70;;;;;;;;;;4267557;33;20307;-55
2021/01/28 10:39:09;;;;;;;16.63;8.77;;;;;;;;;;4263988;33;20228;-55
2021/01/28 10:41:35;;;;;;;12.17;7.73;;;;;;;;;;4264432;33;20623;-56
2021/01/28 10:44:00;;;;;;;17.70;7.60;;;;;;;;;;4268365;33;20627;-57
2021/01/28 10:46:26;;;;;;;15.67;8.90;;;;;;;;;;4266106;33;20220;-56
2021/01/28 10:48:51;;;;;;;12.37;9.53;;;;;;;;;;4264446;33;20258;-56
2021/01/28 10:51:17;;;;;;;16.60;9.00;;;;;;;;;;4269062;33;20291;-56
2021/01/28 10:53:43;;;;;;;16.13;9.57;;;;;;;;;;4268626;33;20922;-56
2021/01/28 10:56:08;;;;;;;18.00;9.60;;;;;;;;;;4268422;33;20258;-56
2021/01/28 10:58:34;;;;;;;34.57;19.30;;;;;;;;;;4268533;33;20262;-56
2021/01/28 11:01:00;;;;;;;23.23;13.20;;;;;;;;;;4268336;33;20629;-56
2021/01/28 11:03:25;;;;;;;16.00;10.47;;;;;;;;;;4268343;33;20575;-56
2021/01/28 11:05:51;;;;;;;14.73;9.93;;;;;;;;;;4268911;33;20650;-56
2021/01/28 11:08:17;;;;;;;14.97;8.47;;;;;;;;;;4268750;33;20288;-56
2021/01/28 11:10:43;;;;;;;14.73;8.40;;;;;;;;;;4267771;33;20405;-57
2021/01/28 11:13:09;;;;;;;10.40;7.33;;;;;;;;;;4268724;33;20647;-56
2021/01/28 11:15:37;;;;;;;19.33;10.70;;;;;;;;;;4268979;33;20275;-57
2021/01/28 11:18:04;;;;;;;31.43;14.93;;;;;;;;;;4267957;33;20244;-52
2021/01/28 11:20:31;;;;;;;15.43;9.57;;;;;;;;;;4269182;33;20212;-57
2021/01/28 11:22:59;;;;;;;14.03;8.27;;;;;;;;;;4266484;33;20312;-56
2021/01/28 11:25:25;;;;;;;9.73;7.33;;;;;;;;;;4268576;33;20208;-56
2021/01/28 11:27:51;;;;;;;15.67;11.50;;;;;;;;;;4268256;33;20243;-55
2021/01/28 11:30:18;;;;;;;13.27;9.37;;;;;;;;;;4265245;33;20295;-56
2021/01/28 11:32:45;;;;;;;12.77;8.23;;;;;;;;;;4265907;33;20276;-56
2021/01/28 11:35:11;;;;;;;14.77;8.33;;;;;;;;;;4266589;33;20220;-56
2021/01/28 11:37:37;;;;;;;9.70;6.60;;;;;;;;;;4263664;33;20354;-56
2021/01/28 11:40:05;;;;;;;21.00;13.67;;;;;;;;;;4268038;33;20374;-56
2021/01/28 11:42:31;;;;;;;20.77;10.50;;;;;;;;;;4268211;33;20232;-55
2021/01/28 11:44:57;;;;;;;13.93;8.07;;;;;;;;;;4271395;33;20715;-56
2021/01/28 11:47:24;;;;;;;10.67;6.70;;;;;;;;;;4271573;33;20698;-55
2021/01/28 11:49:51;;;;;;;14.23;8.17;;;;;;;;;;4271661;33;20686;-56
2021/01/28 11:52:16;;;;;;;14.47;9.13;;;;;;;;;;4270563;33;20287;-55
2021/01/28 11:54:42;;;;;;;23.10;12.77;;;;;;;;;;4276400;33;20490;-55
2021/01/28 11:57:07;;;;;;;15.47;8.87;;;;;;;;;;4271178;33;20232;-55
2021/01/28 11:59:32;;;;;;;18.50;10.97;;;;;;;;;;4271131;33;20332;-55
2021/01/28 12:01:58;;;;;;;12.97;9.47;;;;;;;;;;4270103;33;20267;-55
2021/01/28 12:04:23;;;;;;;16.63;8.80;;;;;;;;;;4257794;33;20342;-56
2021/01/28 12:06:49;;;;;;;30.87;14.50;;;;;;;;;;4270765;33;20221;-55
2021/01/28 12:09:14;;;;;;;13.57;7.50;;;;;;;;;;4270264;33;20555;-55
2021/01/28 12:11:40;;;;;;;8.93;7.00;;;;;;;;;;4270375;33;20229;-55
2021/01/28 12:14:05;;;;;;;5.73;4.20;;;;;;;;;;4269826;33;20315;-55
2021/01/28 12:16:31;;;;;;;8.30;5.70;;;;;;;;;;4281396;33;20339;-54
2021/01/28 12:18:56;;;;;;;9.30;7.03;;;;;;;;;;4278695;33;20304;-55
2021/01/28 12:21:23;;;;;;;25.33;11.80;;;;;;;;;;4271073;33;20319;-55
2021/01/28 12:23:50;;;;;;;20.43;8.87;;;;;;;;;;4270848;33;20283;-55
2021/01/28 12:26:15;;;;;;;8.30;5.70;;;;;;;;;;4270490;33;20292;-52
2021/01/28 12:28:41;;;;;;;14.57;8.17;;;;;;;;;;4276109;33;20344;-53
2021/01/28 12:31:06;;;;;;;11.70;6.80;;;;;;;;;;4270091;33;20656;-52
2021/01/28 12:33:32;;;;;;;8.77;5.17;;;;;;;;;;4272162;33;20862;-52
2021/01/28 12:35:57;;;;;;;6.93;5.73;;;;;;;;;;4269515;33;20644;-52
2021/01/28 12:38:23;;;;;;;13.20;8.93;;;;;;;;;;4272809;33;20200;-52
2021/01/28 12:40:49;;;;;;;10.67;6.70;;;;;;;;;;4269695;33;20375;-51
2021/01/28 12:43:14;;;;;;;9.33;6.37;;;;;;;;;;4270375;33;20338;-53
2021/01/28 12:45:40;;;;;;;12.33;8.03;;;;;;;;;;4270533;33;20315;-55
2021/01/28 12:48:06;;;;;;;14.50;10.10;;;;;;;;;;4270214;33;20236;-54
2021/01/28 12:50:31;;;;;;;20.70;12.40;;;;;;;;;;4270625;33;20317;-55
2021/01/28 12:52:57;;;;;;;9.20;6.70;;;;;;;;;;4269067;33;20343;-54
2021/01/28 12:55:23;;;;;;;11.97;8.17;;;;;;;;;;4262467;33;20383;-55
2021/01/28 12:57:48;;;;;;;14.60;8.07;;;;;;;;;;4264499;33;20643;-55
2021/01/28 13:00:17;;;;;;;16.67;9.20;;;;;;;;;;4278909;33;20386;-55
2021/01/28 13:02:44;;;;;;;18.17;10.87;;;;;;;;;;4267874;33;20311;-55
2021/01/28 13:05:10;;;;;;;11.93;8.63;;;;;;;;;;4266151;33;20391;-55
2021/01/28 13:07:35;;;;;;;9.10;6.47;;;;;;;;;;4265873;33;20361;-54
2021/01/28 13:10:01;;;;;;;11.30;6.87;;;;;;;;;;4263250;33;20356;-54
2021/01/28 13:12:26;;;;;;;13.27;6.17;;;;;;;;;;4253506;33;20233;-55
2021/01/28 13:14:52;;;;;;;11.77;7.80;;;;;;;;;;4278803;33;20300;-55
2021/01/28 13:17:17;;;;;;;9.30;5.57;;;;;;;;;;4269271;33;20903;-55
2021/01/28 13:19:43;;;;;;;15.53;7.50;;;;;;;;;;4263175;33;20292;-55
2021/01/28 13:22:08;;;;;;;15.27;8.83;;;;;;;;;;4260138;33;20233;-54
2021/01/28 13:24:34;;;;;;;11.60;6.67;;;;;;;;;;4269334;33;20280;-54
2021/01/28 13:26:59;;;;;;;10.87;7.30;;;;;;;;;;4266102;33;20724;-52
2021/01/28 13:29:25;;;;;;;10.60;6.77;;;;;;;;;;4267802;33;20693;-54
2021/01/28 13:31:50;;;;;;;9.73;7.03;;;;;;;;;;4270420;33;20347;-52
2021/01/28 13:34:16;;;;;;;13.43;9.43;;;;;;;;;;4275064;33;20329;-52
2021/01/28 13:36:42;;;;;;;29.70;17.27;;;;;;;;;;4272260;33;20236;-52
2021/01/28 13:39:07;;;;;;;12.20;7.97;;;;;;;;;;4272710;33;20349;-52
2021/01/28 13:41:35;;;;;;;13.77;9.13;;;;;;;;;;4276051;33;20364;-52
2021/01/28 13:44:00;;;;;;;16.53;10.37;;;;;;;;;;4269307;33;20319;-52
2021/01/28 13:46:26;;;;;;;29.53;13.57;;;;;;;;;;4273375;33;20292;-52
2021/01/28 13:48:52;;;;;;;19.23;12.30;;;;;;;;;;4274129;33;20463;-57
2021/01/28 13:51:17;;;;;;;26.07;14.83;;;;;;;;;;4273990;33;20342;-54
2021/01/28 13:53:43;;;;;;;16.73;10.70;;;;;;;;;;4271428;33;20353;-53
2021/01/28 13:56:08;;;;;;;19.17;11.20;;;;;;;;;;4269154;33;20259;-53
2021/01/28 13:58:34;;;;;;;23.93;14.63;;;;;;;;;;4274673;33;20639;-54
2021/01/28 14:00:59;;;;;;;24.63;10.80;;;;;;;;;;4278308;33;20663;-54
2021/01/28 14:03:25;;;;;;;18.20;10.10;;;;;;;;;;4271921;33;20272;-54
2021/01/28 14:05:51;;;;;;;19.83;11.47;;;;;;;;;;4275020;33;20325;-54
2021/01/28 14:08:16;;;;;;;30.53;20.67;;;;;;;;;;4264162;33;20260;-53
2021/01/28 14:10:42;;;;;;;18.23;10.20;;;;;;;;;;4269257;33;20592;-55
2021/01/28 14:13:07;;;;;;;18.53;10.00;;;;;;;;;;4268964;33;20536;-55
2021/01/28 14:15:34;;;;;;;14.80;8.73;;;;;;;;;;4269253;33;20795;-56
2021/01/28 14:18:00;;;;;;;16.90;10.83;;;;;;;;;;4266726;33;20256;-58
2021/01/28 14:20:27;;;;;;;18.43;9.63;;;;;;;;;;4273025;33;20717;-53
2021/01/28 14:22:55;;;;;;;9.33;6.63;;;;;;;;;;4269817;33;20676;-52
2021/01/28 14:25:20;;;;;;;8.83;6.17;;;;;;;;;;4272953;33;20239;-52
2021/01/28 14:27:46;;;;;;;15.13;9.30;;;;;;;;;;4269110;33;20224;-52
2021/01/28 14:30:14;;;;;;;22.67;11.83;;;;;;;;;;4261758;33;20416;-52
2021/01/28 14:32:40;;;;;;;15.27;10.47;;;;;;;;;;4268871;33;20386;-54
2021/01/28 14:35:06;;;;;;;15.17;9.77;;;;;;;;;;4268864;33;20712;-55
2021/01/28 14:37:32;;;;;;;15.27;10.93;;;;;;;;;;4258554;33;20717;-54
2021/01/28 14:39:58;;;;;;;19.80;10.63;;;;;;;;;;4270037;33;20705;-55